createdAt,value
2018-12-21T00:01:20.528Z,98.30
2018-12-21T00:03:49.420Z,66.97
2018-12-21T00:06:18.443Z,62.27
2018-12-21T00:08:47.404Z,72.13
2018-12-21T00:11:16.428Z,77.03
2018-12-21T00:13:45.412Z,75.33
2018-12-21T00:16:14.405Z,65.73
2018-12-21T00:18:43.440Z,59.30
2018-12-21T00:21:12.359Z,65.83
2018-12-21T00:23:41.324Z,64.77
2018-12-21T00:26:10.311Z,71.60
2018-12-21T00:28:39.292Z,65.10
2018-12-21T00:31:13.338Z,70.87
2018-12-21T00:33:47.458Z,85.00
2018-12-21T00:36:21.465Z,90.53
2018-12-21T00:38:55.518Z,65.53
2018-12-21T00:41:23.431Z,88.43
2018-12-21T00:43:58.348Z,103.47
2018-12-21T00:46:31.395Z,65.60
2018-12-21T00:49:00.625Z,53.40
2018-12-21T00:51:30.345Z,66.17
2018-12-21T00:53:59.936Z,70.80
2018-12-21T00:56:28.955Z,61.73
2018-12-21T00:58:58.024Z,71.27
2018-12-21T01:01:29.043Z,85.57
2018-12-21T01:03:58.139Z,78.13
2018-12-21T01:06:27.127Z,49.80
2018-12-21T01:08:56.117Z,58.37
2018-12-21T01:11:25.164Z,70.67
2018-12-21T01:13:54.275Z,70.80
2018-12-21T01:16:23.201Z,68.20
2018-12-21T01:18:52.338Z,59.77
2018-12-21T01:21:21.384Z,62.47
2018-12-21T01:23:50.420Z,72.37
2018-12-21T01:26:19.395Z,59.07
2018-12-21T01:28:48.370Z,57.63
2018-12-21T01:31:17.229Z,63.80
2018-12-21T01:33:46.178Z,72.33
2018-12-21T01:36:15.336Z,71.07
2018-12-21T01:38:44.409Z,70.70
2018-12-21T01:41:13.429Z,63.97
2018-12-21T01:43:42.434Z,72.53
2018-12-21T01:46:11.418Z,66.40
2018-12-21T01:48:40.357Z,77.37
2018-12-21T01:51:09.325Z,109.60
2018-12-21T01:53:38.362Z,77.67
2018-12-21T01:56:07.421Z,93.13
2018-12-21T01:58:36.313Z,77.83
2018-12-21T02:01:05.288Z,108.80
2018-12-21T02:03:34.323Z,116.33
2018-12-21T02:06:03.344Z,125.60
2018-12-21T02:08:32.382Z,102.97
2018-12-21T02:11:01.321Z,107.80
2018-12-21T02:13:30.300Z,96.90
2018-12-21T02:15:59.228Z,109.40
2018-12-21T02:18:28.204Z,88.27
2018-12-21T02:20:57.129Z,97.37
2018-12-21T02:23:25.981Z,110.53
2018-12-21T02:25:54.873Z,99.77
2018-12-21T02:28:23.953Z,89.37
2018-12-21T02:30:52.969Z,86.10
2018-12-21T02:33:21.833Z,106.93
2018-12-21T02:35:50.852Z,81.33
2018-12-21T02:38:19.736Z,79.47
2018-12-21T02:40:48.800Z,97.13
2018-12-21T02:43:17.745Z,74.73
2018-12-21T02:45:46.672Z,89.20
2018-12-21T02:48:15.716Z,86.03
2018-12-21T02:50:44.693Z,93.30
2018-12-21T02:53:13.715Z,110.57
2018-12-21T02:55:42.747Z,110.83
2018-12-21T02:58:11.843Z,99.20
2018-12-21T03:00:40.871Z,121.70
2018-12-21T03:03:09.848Z,99.17
2018-12-21T03:05:38.725Z,92.33
2018-12-21T03:08:07.623Z,95.57
2018-12-21T03:10:36.640Z,108.03
2018-12-21T03:13:05.589Z,83.27
2018-12-21T03:15:34.610Z,93.50
2018-12-21T03:18:03.500Z,94.40
2018-12-21T03:20:32.477Z,91.20
2018-12-21T03:23:01.398Z,90.13
2018-12-21T03:25:30.545Z,91.70
2018-12-21T03:27:59.524Z,72.67
2018-12-21T03:30:28.706Z,82.17
2018-12-21T03:32:57.651Z,68.27
2018-12-21T03:35:26.634Z,72.93
2018-12-21T03:37:55.619Z,82.47
2018-12-21T03:40:24.553Z,73.60
2018-12-21T03:42:53.549Z,68.00
2018-12-21T03:45:22.590Z,66.50
2018-12-21T03:47:51.521Z,71.50
2018-12-21T03:50:20.495Z,86.90
2018-12-21T03:52:49.481Z,62.10
2018-12-21T03:55:18.456Z,66.33
2018-12-21T03:57:47.332Z,70.97
2018-12-21T04:00:16.366Z,73.10
2018-12-21T04:02:45.240Z,67.77
2018-12-21T04:05:14.217Z,67.03
2018-12-21T04:07:43.306Z,72.73
2018-12-21T04:10:12.346Z,70.27
2018-12-21T04:12:41.465Z,66.07
2018-12-21T04:15:10.461Z,70.60
2018-12-21T04:17:39.432Z,62.60
2018-12-21T04:20:08.492Z,69.27
2018-12-21T04:22:37.461Z,64.20
2018-12-21T04:25:06.672Z,67.40
2018-12-21T04:27:35.600Z,65.23
2018-12-21T04:30:04.514Z,61.80
2018-12-21T04:32:33.548Z,71.07
2018-12-21T04:35:02.599Z,68.53
2018-12-21T04:37:31.551Z,68.93
2018-12-21T04:40:00.586Z,68.03
2018-12-21T04:42:29.524Z,56.33
2018-12-21T04:44:58.527Z,76.07
2018-12-21T04:47:27.453Z,67.40
2018-12-21T04:49:56.500Z,75.97
2018-12-21T04:52:25.372Z,70.30
2018-12-21T04:54:54.273Z,76.83
2018-12-21T04:57:23.241Z,79.17
2018-12-21T04:59:52.221Z,131.47
2018-12-21T05:02:21.157Z,92.67
2018-12-21T05:04:50.085Z,95.03
2018-12-21T05:07:19.112Z,101.30
2018-12-21T05:09:48.089Z,81.73
2018-12-21T05:12:17.020Z,92.60
2018-12-21T05:14:46.134Z,91.07
2018-12-21T05:17:15.172Z,86.67
2018-12-21T05:19:44.204Z,94.33
2018-12-21T05:22:13.167Z,86.37
2018-12-21T05:24:42.141Z,96.50
2018-12-21T05:27:11.322Z,99.13
2018-12-21T05:29:40.332Z,92.53
2018-12-21T05:32:09.513Z,92.50
2018-12-21T05:34:38.620Z,102.73
2018-12-21T05:37:07.610Z,97.43
2018-12-21T05:39:36.550Z,86.40
2018-12-21T05:42:05.539Z,95.30
2018-12-21T05:44:34.519Z,98.10
2018-12-21T05:47:03.582Z,74.87
2018-12-21T05:49:32.580Z,81.80
2018-12-21T05:52:01.552Z,82.57
2018-12-21T05:54:30.592Z,62.83
2018-12-21T05:56:59.569Z,60.77
2018-12-21T05:59:28.549Z,88.97
2018-12-21T06:01:57.461Z,94.80
2018-12-21T06:04:26.539Z,92.43
2018-12-21T06:06:55.577Z,92.03
2018-12-21T06:09:24.596Z,86.67
2018-12-21T06:11:53.569Z,92.87
2018-12-21T06:14:22.683Z,97.23
2018-12-21T06:16:51.770Z,88.97
2018-12-21T06:19:20.762Z,86.63
2018-12-21T06:21:49.756Z,76.60
2018-12-21T06:24:18.784Z,87.67
2018-12-21T06:26:47.833Z,78.07
2018-12-21T06:29:16.773Z,90.60
2018-12-21T06:31:45.710Z,90.77
2018-12-21T06:34:14.692Z,94.53
2018-12-21T06:36:43.584Z,87.43
2018-12-21T06:39:12.662Z,87.17
2018-12-21T06:41:41.637Z,75.47
2018-12-21T06:44:10.649Z,74.20
2018-12-21T06:46:39.673Z,77.03
2018-12-21T06:49:08.669Z,68.87
2018-12-21T06:51:37.713Z,80.20
2018-12-21T06:54:06.649Z,73.53
2018-12-21T06:56:35.572Z,74.97
2018-12-21T06:59:04.609Z,76.73
2018-12-21T07:01:33.651Z,66.30
2018-12-21T07:04:02.586Z,75.17
2018-12-21T07:06:31.568Z,82.70
2018-12-21T07:09:00.553Z,111.93
2018-12-21T07:11:29.461Z,92.10
2018-12-21T07:13:58.476Z,82.07
2018-12-21T07:16:27.545Z,93.43
2018-12-21T07:18:56.536Z,85.50
2018-12-21T07:21:25.548Z,90.60
2018-12-21T07:23:54.525Z,90.13
2018-12-21T07:26:23.524Z,92.10
2018-12-21T07:28:53.294Z,94.13
2018-12-21T07:31:22.329Z,88.07
2018-12-21T07:33:51.317Z,78.40
2018-12-21T07:36:20.268Z,78.23
2018-12-21T07:38:49.172Z,80.57
2018-12-21T07:41:18.416Z,68.73
2018-12-21T07:43:47.433Z,49.77
2018-12-21T07:46:17.374Z,47.90
2018-12-21T07:48:46.497Z,52.77
2018-12-21T07:51:15.485Z,47.10
2018-12-21T07:53:44.414Z,56.30
2018-12-21T07:56:13.340Z,45.37
2018-12-21T07:58:42.270Z,48.60
2018-12-21T08:01:11.313Z,51.53
2018-12-21T08:03:40.317Z,48.33
2018-12-21T08:06:09.249Z,53.67
2018-12-21T08:08:38.382Z,49.07
2018-12-21T08:11:07.353Z,48.40
2018-12-21T08:13:36.320Z,33.83
2018-12-21T08:16:05.619Z,45.07
2018-12-21T08:18:34.536Z,43.77
2018-12-21T08:21:03.478Z,51.00
2018-12-21T08:23:32.533Z,41.23
2018-12-21T08:26:01.506Z,46.60
2018-12-21T08:28:30.467Z,53.33
2018-12-21T08:30:59.464Z,54.00
2018-12-21T08:33:28.509Z,55.07
2018-12-21T08:35:57.473Z,61.03
2018-12-21T08:38:26.476Z,60.57
2018-12-21T08:40:55.497Z,59.53
2018-12-21T08:43:24.413Z,63.77
2018-12-21T08:45:53.428Z,60.87
2018-12-21T08:48:22.681Z,59.30
2018-12-21T08:50:51.713Z,60.60
2018-12-21T08:53:20.720Z,75.20
2018-12-21T08:55:49.729Z,61.27
2018-12-21T08:58:18.760Z,62.57
2018-12-21T09:00:47.734Z,62.40
2018-12-21T09:03:16.648Z,74.07
2018-12-21T09:05:47.227Z,65.73
2018-12-21T09:08:16.312Z,64.97
2018-12-21T09:10:45.296Z,77.13
2018-12-21T09:13:14.521Z,59.50
2018-12-21T09:15:43.471Z,69.67
2018-12-21T09:18:12.392Z,70.97
2018-12-21T09:20:41.477Z,95.83
2018-12-21T09:23:10.441Z,73.20
2018-12-21T09:25:39.372Z,66.23
2018-12-21T09:28:08.431Z,68.53
2018-12-21T09:30:37.479Z,61.37
2018-12-21T09:33:06.560Z,58.63
2018-12-21T09:35:35.649Z,69.73
2018-12-21T09:38:04.708Z,71.77
2018-12-21T09:40:33.638Z,60.70
2018-12-21T09:43:02.593Z,62.53
2018-12-21T09:45:31.521Z,74.73
2018-12-21T09:48:00.584Z,75.50
2018-12-21T09:50:29.601Z,70.53
2018-12-21T09:52:58.812Z,73.13
2018-12-21T09:55:27.881Z,70.03
2018-12-21T09:57:56.801Z,70.43
2018-12-21T10:00:25.723Z,75.10
2018-12-21T10:02:54.754Z,75.27
2018-12-21T10:05:23.644Z,80.30
2018-12-21T10:07:52.509Z,86.37
2018-12-21T10:10:21.488Z,89.30
2018-12-21T10:12:53.470Z,85.03
2018-12-21T10:15:21.505Z,82.30
2018-12-21T10:17:50.494Z,80.23
2018-12-21T10:20:20.064Z,79.53
2018-12-21T10:22:49.253Z,82.23
2018-12-21T10:25:18.224Z,85.87
2018-12-21T10:27:47.141Z,76.87
2018-12-21T10:30:16.108Z,132.13
2018-12-21T10:32:45.124Z,87.60
2018-12-21T10:35:14.111Z,73.10
2018-12-21T10:37:43.005Z,70.83
2018-12-21T10:40:11.952Z,75.20
2018-12-21T10:42:41.121Z,93.63
2018-12-21T10:45:10.134Z,76.50
2018-12-21T10:47:39.013Z,69.87
2018-12-21T10:50:10.821Z,70.50
2018-12-21T10:52:39.924Z,90.77
2018-12-21T10:55:09.064Z,101.97
2018-12-21T10:57:38.078Z,85.67
2018-12-21T11:00:09.397Z,91.73
2018-12-21T11:02:38.394Z,100.43
2018-12-21T11:05:08.184Z,89.37
2018-12-21T11:07:37.225Z,76.30
2018-12-21T11:10:09.080Z,88.40
2018-12-21T11:12:38.141Z,97.97
2018-12-21T11:15:07.548Z,89.60
2018-12-21T11:17:36.568Z,92.03
2018-12-21T11:20:06.957Z,97.23
2018-12-21T11:22:35.780Z,120.63
2018-12-21T11:25:05.801Z,105.87
2018-12-21T11:27:34.676Z,91.67
2018-12-21T11:30:03.719Z,83.43
2018-12-21T11:32:32.645Z,85.13
2018-12-21T11:35:01.726Z,88.10
2018-12-21T11:37:30.829Z,82.67
2018-12-21T11:39:59.745Z,90.00
2018-12-21T11:42:29.479Z,81.40
2018-12-21T11:44:58.392Z,87.73
2018-12-21T11:47:27.320Z,86.57
2018-12-21T11:49:56.350Z,75.57
2018-12-21T11:52:25.272Z,78.83
2018-12-21T11:54:54.233Z,76.17
2018-12-21T11:57:23.176Z,77.07
2018-12-21T11:59:52.093Z,76.63
2018-12-21T12:02:21.128Z,102.47
2018-12-21T12:04:50.048Z,101.90
2018-12-21T12:07:18.976Z,98.37
2018-12-21T12:09:47.917Z,93.07
2018-12-21T12:12:16.841Z,101.73
2018-12-21T12:14:45.933Z,95.50
2018-12-21T12:17:14.796Z,92.83
2018-12-21T12:19:43.721Z,90.17
2018-12-21T12:22:12.793Z,90.57
2018-12-21T12:24:41.766Z,102.97
2018-12-21T12:27:10.849Z,104.47
2018-12-21T12:29:39.760Z,109.87
2018-12-21T12:32:08.290Z,108.47
2018-12-21T12:34:37.207Z,124.03
2018-12-21T12:37:06.179Z,119.33
2018-12-21T12:39:35.086Z,126.80
2018-12-21T12:42:04.163Z,110.10
2018-12-21T12:44:33.288Z,139.80
2018-12-21T12:47:02.221Z,125.00
2018-12-21T12:49:31.220Z,130.00
2018-12-21T12:52:00.320Z,134.67
2018-12-21T12:54:29.289Z,120.10
2018-12-21T12:56:58.205Z,114.07
2018-12-21T12:59:27.117Z,122.00
2018-12-21T13:01:58.418Z,147.87
2018-12-21T13:04:33.541Z,149.77
2018-12-21T13:07:02.574Z,126.10
2018-12-21T13:09:31.537Z,129.13
2018-12-21T13:12:00.555Z,120.63
2018-12-21T13:14:29.462Z,117.83
2018-12-21T13:16:58.405Z,124.00
2018-12-21T13:19:27.291Z,112.63
2018-12-21T13:21:56.173Z,123.30
2018-12-21T13:24:25.196Z,127.40
2018-12-21T13:26:54.404Z,135.37
2018-12-21T13:29:23.285Z,129.83
2018-12-21T13:31:52.233Z,169.43
2018-12-21T13:34:21.257Z,156.60
2018-12-21T13:36:50.232Z,157.17
2018-12-21T13:39:19.314Z,140.23
2018-12-21T13:41:48.302Z,153.20
2018-12-21T13:44:17.281Z,137.03
2018-12-21T13:46:46.455Z,140.37
2018-12-21T13:49:15.476Z,180.97
2018-12-21T13:51:44.413Z,153.80
2018-12-21T13:54:13.331Z,181.57
2018-12-21T13:56:43.135Z,223.07
2018-12-21T13:59:12.364Z,181.83
2018-12-21T14:01:41.371Z,202.53
2018-12-21T14:04:10.287Z,189.47
2018-12-21T14:06:39.260Z,178.30
2018-12-21T14:09:08.647Z,180.00
2018-12-21T14:11:37.615Z,257.63
2018-12-21T14:14:06.507Z,228.23
2018-12-21T14:16:35.456Z,228.43
2018-12-21T14:19:04.434Z,155.03
2018-12-21T14:21:33.560Z,247.13
2018-12-21T14:24:02.480Z,263.13
2018-12-21T14:26:31.420Z,363.80
2018-12-21T14:29:00.493Z,208.03
2018-12-21T14:31:29.477Z,275.67
2018-12-21T14:33:58.497Z,179.07
2018-12-21T14:36:27.482Z,225.87
2018-12-21T14:38:56.361Z,245.67
2018-12-21T14:41:25.603Z,195.90
2018-12-21T14:43:54.757Z,181.17
2018-12-21T14:46:23.838Z,169.20
2018-12-21T14:48:52.777Z,121.73
2018-12-21T14:51:21.709Z,131.27
2018-12-21T14:53:50.766Z,150.03
2018-12-21T14:56:19.781Z,130.00
2018-12-21T14:58:48.809Z,236.23
2018-12-21T15:01:17.784Z,100.10
2018-12-21T15:03:46.798Z,160.87
2018-12-21T15:06:15.892Z,157.50
2018-12-21T15:08:44.868Z,139.70
2018-12-21T15:11:13.899Z,221.60
2018-12-21T15:13:42.893Z,165.13
2018-12-21T15:16:11.893Z,157.13
2018-12-21T15:18:40.828Z,208.40
2018-12-21T15:21:09.770Z,166.63
2018-12-21T15:23:38.759Z,247.33
2018-12-21T15:26:07.649Z,208.27
2018-12-21T15:28:36.691Z,217.07
2018-12-21T15:31:05.627Z,152.07
2018-12-21T15:33:34.621Z,142.47
2018-12-21T15:36:03.496Z,108.07
2018-12-21T15:38:32.570Z,140.90
2018-12-21T15:41:01.505Z,95.63
2018-12-21T15:43:30.492Z,86.47
2018-12-21T15:45:59.473Z,101.67
2018-12-21T15:48:28.447Z,99.83
2018-12-21T15:50:57.473Z,106.40
2018-12-21T15:53:26.496Z,102.57
2018-12-21T15:55:55.381Z,123.13
2018-12-21T15:58:24.281Z,80.00
2018-12-21T16:00:53.201Z,97.67
2018-12-21T16:03:22.076Z,124.50
2018-12-21T16:05:51.092Z,88.10
2018-12-21T16:08:20.115Z,110.83
2018-12-21T16:10:49.137Z,84.00
2018-12-21T16:13:18.139Z,93.87
2018-12-21T16:15:47.266Z,160.13
2018-12-21T16:18:16.296Z,123.17
2018-12-21T16:20:45.274Z,74.83
2018-12-21T16:23:14.318Z,91.50
2018-12-21T16:25:43.196Z,95.63
2018-12-21T16:28:12.177Z,71.43
2018-12-21T16:30:41.176Z,72.50
2018-12-21T16:33:10.156Z,78.33
2018-12-21T16:35:39.216Z,153.10
2018-12-21T16:38:08.101Z,158.87
2018-12-21T16:40:37.168Z,134.27
2018-12-21T16:43:06.210Z,233.53
2018-12-21T16:45:35.245Z,145.20
2018-12-21T16:48:04.372Z,250.47
2018-12-21T16:50:33.357Z,142.50
2018-12-21T16:53:02.437Z,126.57
2018-12-21T16:55:31.427Z,105.97
2018-12-21T16:58:00.460Z,111.13
2018-12-21T17:00:29.436Z,98.83
2018-12-21T17:02:58.412Z,122.13
2018-12-21T17:05:27.393Z,117.80
2018-12-21T17:07:56.361Z,118.83
2018-12-21T17:10:26.041Z,133.77
2018-12-21T17:12:55.153Z,121.93
2018-12-21T17:15:24.157Z,117.17
2018-12-21T17:17:53.106Z,136.63
2018-12-21T17:20:22.081Z,196.63
2018-12-21T17:22:51.021Z,197.17
2018-12-21T17:25:19.992Z,167.43
2018-12-21T17:27:48.953Z,126.90
2018-12-21T17:30:17.913Z,179.07
2018-12-21T17:32:46.918Z,251.80
2018-12-21T17:35:15.992Z,229.67
2018-12-21T17:37:46.010Z,106.37
2018-12-21T17:40:15.051Z,199.53
2018-12-21T17:42:43.986Z,98.80
2018-12-21T17:45:14.255Z,125.20
2018-12-21T17:47:43.258Z,143.13
2018-12-21T17:50:12.305Z,212.37
2018-12-21T17:52:41.422Z,119.83
2018-12-21T17:55:10.948Z,148.37
2018-12-21T17:57:40.056Z,114.37
2018-12-21T18:00:15.994Z,220.77
2018-12-21T18:02:47.200Z,149.73
2018-12-21T18:05:16.232Z,244.33
2018-12-21T18:07:45.223Z,344.83
2018-12-21T18:10:14.340Z,226.03
2018-12-21T18:12:43.462Z,143.53
2018-12-21T18:15:12.465Z,157.30
2018-12-21T18:17:41.691Z,198.53
2018-12-21T18:20:12.400Z,286.47
2018-12-21T18:22:42.013Z,467.63
2018-12-21T18:25:16.503Z,341.80
2018-12-21T18:27:48.142Z,256.63
2018-12-21T18:30:51.608Z,303.50
2018-12-21T18:33:23.390Z,267.17
2018-12-21T18:35:52.234Z,439.97
2018-12-21T18:38:23.670Z,388.27
2018-12-21T18:40:52.664Z,449.87
2018-12-21T18:43:21.667Z,448.70
2018-12-21T18:45:50.672Z,389.40
2018-12-21T18:48:19.664Z,465.47
2018-12-21T18:50:48.854Z,461.63
2018-12-21T18:53:17.909Z,383.20
2018-12-21T18:55:49.316Z,498.33
2018-12-21T18:58:18.345Z,382.97
2018-12-21T19:00:47.302Z,402.20
2018-12-21T19:03:16.304Z,398.47
2018-12-21T19:05:45.384Z,293.50
2018-12-21T19:08:14.422Z,227.33
2018-12-21T19:10:43.369Z,382.03
2018-12-21T19:13:12.445Z,344.83
2018-12-21T19:15:41.576Z,402.17
2018-12-21T19:18:10.568Z,371.60
2018-12-21T19:20:39.501Z,295.90
2018-12-21T19:23:08.485Z,420.17
2018-12-21T19:25:37.377Z,442.63
2018-12-21T19:28:06.269Z,495.23
2018-12-21T19:30:35.314Z,452.50
2018-12-21T19:33:04.300Z,424.73
2018-12-21T19:35:33.291Z,426.00
2018-12-21T19:38:02.337Z,401.20
2018-12-21T19:40:31.397Z,462.43
2018-12-21T19:43:00.439Z,605.23
2018-12-21T19:45:29.434Z,500.40
2018-12-21T19:47:58.481Z,389.27
2018-12-21T19:50:27.476Z,550.73
2018-12-21T19:52:56.437Z,466.37
2018-12-21T19:55:34.210Z,539.27
2018-12-21T19:58:03.185Z,489.73
2018-12-21T20:00:32.248Z,493.30
2018-12-21T20:03:01.232Z,560.53
2018-12-21T20:05:30.213Z,391.93
2018-12-21T20:07:59.192Z,607.97
2018-12-21T20:10:28.245Z,541.23
2018-12-21T20:12:57.229Z,546.47
2018-12-21T20:15:26.217Z,506.27
2018-12-21T20:17:55.244Z,581.07
2018-12-21T20:20:24.185Z,674.10
2018-12-21T20:22:53.176Z,671.37
2018-12-21T20:25:22.167Z,651.57
2018-12-21T20:27:51.110Z,638.00
2018-12-21T20:30:20.812Z,549.13
2018-12-21T20:32:49.944Z,512.47
2018-12-21T20:35:18.932Z,458.70
2018-12-21T20:37:47.974Z,393.50
2018-12-21T20:40:16.956Z,344.53
2018-12-21T20:42:45.929Z,255.60
2018-12-21T20:45:15.139Z,281.80
2018-12-21T20:47:44.077Z,254.10
2018-12-21T20:50:15.673Z,291.73
2018-12-21T20:52:44.725Z,267.47
2018-12-21T20:55:13.833Z,284.80
2018-12-21T20:57:44.597Z,284.17
2018-12-21T21:00:15.380Z,309.77
2018-12-21T21:02:44.415Z,343.03
2018-12-21T21:05:13.405Z,339.50
2018-12-21T21:07:42.396Z,390.53
2018-12-21T21:10:13.040Z,430.33
2018-12-21T21:12:42.379Z,416.10
2018-12-21T21:15:12.798Z,396.17
2018-12-21T21:17:41.846Z,392.00
2018-12-21T21:20:13.154Z,365.17
2018-12-21T21:22:42.177Z,248.27
2018-12-21T21:25:11.246Z,343.87
2018-12-21T21:27:40.414Z,180.10
2018-12-21T21:30:13.181Z,171.33
2018-12-21T21:32:42.230Z,277.90
2018-12-21T21:35:11.213Z,195.83
2018-12-21T21:37:40.254Z,180.80
2018-12-21T21:40:12.940Z,206.27
2018-12-21T21:42:41.957Z,235.63
2018-12-21T21:45:10.927Z,131.13
2018-12-21T21:47:39.944Z,126.03
2018-12-21T21:50:09.418Z,101.37
2018-12-21T21:52:38.456Z,114.90
2018-12-21T21:55:07.552Z,193.90
2018-12-21T21:57:39.580Z,100.33
2018-12-21T22:00:10.716Z,110.70
2018-12-21T22:02:39.686Z,137.17
2018-12-21T22:05:08.671Z,124.17
2018-12-21T22:07:37.648Z,103.37
2018-12-21T22:10:09.135Z,94.77
2018-12-21T22:12:38.139Z,81.77
2018-12-21T22:15:08.380Z,34.33
2018-12-21T22:17:37.537Z,45.63
2018-12-21T22:20:09.277Z,35.37
2018-12-21T22:22:38.201Z,52.63
2018-12-21T22:25:07.193Z,35.63
2018-12-21T22:27:36.164Z,26.80
2018-12-21T22:30:06.765Z,45.50
2018-12-21T22:32:35.785Z,37.07
2018-12-21T22:35:04.819Z,34.83
2018-12-21T22:37:33.777Z,30.70
2018-12-21T22:40:02.710Z,33.10
2018-12-21T22:42:31.762Z,35.43
2018-12-21T22:45:00.715Z,31.30
2018-12-21T22:47:29.623Z,38.23
2018-12-21T22:49:58.689Z,35.43
2018-12-21T22:52:27.595Z,29.90
2018-12-21T22:54:56.613Z,40.83
2018-12-21T22:57:25.532Z,36.87
2018-12-21T22:59:54.509Z,36.40
2018-12-21T23:02:23.445Z,35.57
2018-12-21T23:04:52.421Z,49.23
2018-12-21T23:07:21.392Z,38.47
2018-12-21T23:09:50.321Z,39.83
2018-12-21T23:12:19.280Z,38.50
2018-12-21T23:14:48.264Z,43.80
2018-12-21T23:17:17.184Z,42.27
2018-12-21T23:19:46.248Z,46.67
2018-12-21T23:22:15.289Z,44.40
2018-12-21T23:24:44.564Z,47.53
2018-12-21T23:27:13.588Z,61.77
2018-12-21T23:29:42.647Z,65.77
2018-12-21T23:32:11.493Z,75.63
2018-12-21T23:34:40.459Z,68.27
2018-12-21T23:37:09.438Z,57.30
2018-12-21T23:39:38.448Z,55.13
2018-12-21T23:42:07.377Z,46.43
2018-12-21T23:44:36.340Z,44.97
2018-12-21T23:47:05.377Z,52.17
2018-12-21T23:49:34.487Z,38.57
2018-12-21T23:52:03.512Z,35.63
2018-12-21T23:54:32.486Z,45.23
2018-12-21T23:57:03.459Z,39.90
2018-12-21T23:59:32.662Z,36.60
